Time;durP1;ratioP1;P1;durP2;ratioP2;P2;SDS_P1;SDS_P2;PMS_P1;PMS_P2;Temp;Humidity;BMP_temperature;BMP_pressure;BME280_temperature;BME280_humidity;BME280_pressure;Samples;Min_cycle;Max_cycle;Signal;HPM_P1;HPM_P2
2023/10/04 00:02:32;;;;;;;8.60;3.50;;;;;;;18.66;53.89;100145.06;7664821;32;40010;-80
2023/10/04 00:06:48;;;;;;;11.30;3.92;;;;;;;18.62;54.10;100141.31;7666000;32;40841;-79
2023/10/04 00:11:05;;;;;;;7.00;3.37;;;;;;;18.51;54.47;100144.34;7666633;32;37618;-80
2023/10/04 00:15:25;;;;;;;13.15;4.22;;;;;;;18.58;54.14;100154.94;7664981;32;36860;-81
2023/10/04 00:19:42;;;;;;;11.52;4.12;;;;;;;18.53;54.34;100158.66;7664041;32;40106;-80
2023/10/04 00:23:59;;;;;;;8.25;3.75;;;;;;;18.53;54.20;100180.72;7670001;32;40839;-80
2023/10/04 00:28:17;;;;;;;9.98;3.87;;;;;;;18.43;54.58;100180.19;7666652;32;38706;-80
2023/10/04 00:32:35;;;;;;;10.90;3.97;;;;;;;18.47;54.44;100184.78;7666110;32;37418;-79
2023/10/04 00:36:52;;;;;;;12.40;4.28;;;;;;;18.28;55.04;100190.50;7665282;32;38924;-79
2023/10/04 00:41:11;;;;;;;11.15;3.92;;;;;;;18.42;54.60;100189.59;7665900;32;39785;-79
2023/10/04 00:45:31;;;;;;;9.32;3.50;;;;;;;18.34;55.00;100188.41;7675163;32;37962;-80
2023/10/04 00:49:52;;;;;;;11.40;3.85;;;;;;;18.38;54.65;100194.91;7660737;32;36871;-80
2023/10/04 00:54:10;;;;;;;10.35;3.50;;;;;;;18.05;55.40;100197.94;7657142;32;40166;-79
2023/10/04 00:58:28;;;;;;;11.95;4.10;;;;;;;18.21;55.01;100198.38;7668365;32;39007;-80
2023/10/04 01:02:44;;;;;;;9.95;3.58;;;;;;;18.07;55.05;100197.63;7670652;32;39068;-79
2023/10/04 01:07:01;;;;;;;9.48;4.18;;;;;;;18.00;55.07;100196.09;7659358;32;36927;-80
2023/10/04 01:11:19;;;;;;;10.95;4.03;;;;;;;18.07;54.96;100201.19;7656315;32;39418;-81
2023/10/04 01:15:39;;;;;;;11.93;3.90;;;;;;;18.01;54.96;100194.97;7656328;32;40020;-81
2023/10/04 01:19:56;;;;;;;9.82;3.92;;;;;;;18.00;55.08;100209.87;7671417;32;38753;-80
2023/10/04 01:24:12;;;;;;;7.95;3.62;;;;;;;18.02;54.59;100202.13;7672968;32;37875;-80
2023/10/04 01:28:30;;;;;;;10.07;3.62;;;;;;;17.90;55.02;100201.03;7671148;32;39106;-80
2023/10/04 01:32:50;;;;;;;10.95;4.15;;;;;;;17.82;55.23;100199.81;7657990;32;39920;-80
2023/10/04 01:37:06;;;;;;;9.40;3.10;;;;;;;17.94;54.83;100211.16;7666466;32;38721;-80
2023/10/04 01:41:24;;;;;;;10.82;4.00;;;;;;;17.83;55.29;100218.81;7679545;32;36903;-80
2023/10/04 01:45:43;;;;;;;8.20;3.72;;;;;;;17.93;55.15;100217.78;7656841;32;39100;-80
2023/10/04 01:49:59;;;;;;;9.40;3.83;;;;;;;17.85;55.69;100226.78;7656546;32;40273;-79
2023/10/04 01:54:16;;;;;;;9.80;4.10;;;;;;;17.77;56.31;100224.75;7656321;32;38806;-80
2023/10/04 01:58:32;;;;;;;10.77;4.18;;;;;;;17.48;57.82;100253.47;7661065;32;38081;-80
2023/10/04 02:02:49;;;;;;;10.38;4.62;;;;;;;17.52;57.92;100253.66;7677833;32;39116;-80
2023/10/04 02:07:06;;;;;;;9.18;3.95;;;;;;;17.65;57.57;100272.13;7671866;32;39995;-80
2023/10/04 02:11:22;;;;;;;14.45;4.30;;;;;;;17.59;57.82;100271.44;7659206;32;37966;-79
2023/10/04 02:15:39;;;;;;;9.77;4.30;;;;;;;17.58;57.93;100294.59;7663857;32;37801;-80
2023/10/04 02:19:55;;;;;;;8.93;4.07;;;;;;;17.22;59.63;100287.03;7667206;32;39287;-79
2023/10/04 02:24:12;;;;;;;10.00;4.20;;;;;;;17.50;58.89;100294.50;7665213;32;39718;-80
2023/10/04 02:28:33;;;;;;;9.98;4.05;;;;;;;17.25;60.09;100307.66;7668330;32;37562;-80
2023/10/04 02:32:50;;;;;;;11.77;4.72;;;;;;;17.34;59.81;100302.25;7659052;32;37095;-80
2023/10/04 02:37:07;;;;;;;7.07;3.90;;;;;;;17.45;59.76;100300.91;7662956;32;39131;-80
2023/10/04 02:41:26;;;;;;;11.45;4.10;;;;;;;17.65;58.74;100306.03;7680300;32;40017;-79
2023/10/04 02:45:43;;;;;;;9.65;4.35;;;;;;;17.20;60.17;100327.03;7658817;32;39268;-81
2023/10/04 02:49:59;;;;;;;7.72;3.58;;;;;;;17.58;58.37;100324.94;7680905;32;35683;-80
2023/10/04 02:54:16;;;;;;;10.50;3.50;;;;;;;17.78;57.45;100320.94;7671752;32;39650;-81
2023/10/04 02:58:34;;;;;;;6.18;3.10;;;;;;;17.79;57.29;100328.09;7683417;32;39839;-81
2023/10/04 03:02:53;;;;;;;5.62;2.92;;;;;;;17.42;58.08;100340.12;7678867;32;37141;-80
2023/10/04 03:07:09;;;;;;;6.05;2.75;;;;;;;17.40;57.46;100334.94;7657120;32;36965;-80
2023/10/04 03:11:27;;;;;;;8.60;3.50;;;;;;;17.64;56.39;100345.78;7666753;32;40058;-80
2023/10/04 03:15:46;;;;;;;19.90;3.28;;;;;;;17.42;57.80;100356.69;7662510;32;40015;-80
2023/10/04 03:20:04;;;;;;;6.97;3.05;;;;;;;17.46;56.77;100354.94;7672027;32;37984;-81
2023/10/04 03:24:20;;;;;;;10.02;2.87;;;;;;;17.91;55.64;100368.16;7682899;32;37052;-81
2023/10/04 03:28:37;;;;;;;10.32;2.60;;;;;;;17.82;55.70;100379.06;7660941;32;39210;-80
2023/10/04 03:32:56;;;;;;;6.20;2.83;;;;;;;17.67;56.03;100391.19;7667372;32;39880;-78
2023/10/04 03:37:15;;;;;;;6.68;2.62;;;;;;;17.80;55.28;100384.06;7673746;32;36934;-80
2023/10/04 03:41:31;;;;;;;6.97;2.62;;;;;;;17.71;55.66;100399.69;7662520;32;37015;-80
2023/10/04 03:45:48;;;;;;;5.18;2.50;;;;;;;17.90;55.05;100407.88;7678453;32;39399;-81
2023/10/04 03:50:13;;;;;;;6.90;2.83;;;;;;;17.95;55.13;100414.13;7666414;32;39929;-80
2023/10/04 03:54:30;;;;;;;7.68;2.10;;;;;;;18.15;54.48;100423.13;7677369;32;38923;-78
2023/10/04 03:58:48;;;;;;;6.47;2.50;;;;;;;18.01;54.82;100426.69;7681126;32;37033;-80
2023/10/04 04:03:06;;;;;;;5.75;2.12;;;;;;;18.30;54.23;100414.53;7659027;32;39375;-81
2023/10/04 04:07:26;;;;;;;8.43;2.10;;;;;;;18.21;54.37;100421.88;7673220;32;39904;-80
2023/10/04 04:11:42;;;;;;;6.80;1.98;;;;;;;18.52;53.53;100433.13;7668476;32;38170;-80
2023/10/04 04:15:59;;;;;;;3.60;1.50;;;;;;;18.32;54.21;100431.59;7675913;32;36847;-79
2023/10/04 04:20:19;;;;;;;2.05;1.50;;;;;;;18.13;54.82;100458.50;7667711;32;39117;-80
2023/10/04 04:24:36;;;;;;;5.15;1.50;;;;;;;18.63;53.40;100449.47;7667127;32;39992;-80
2023/10/04 04:28:52;;;;;;;4.00;1.50;;;;;;;18.40;53.89;100463.16;7670089;32;37970;-80
2023/10/04 04:33:10;;;;;;;2.87;1.42;;;;;;;18.52;53.19;100460.72;7670854;32;36868;-81
2023/10/04 04:37:29;;;;;;;5.12;1.90;;;;;;;18.53;53.14;100478.09;7671550;32;40582;-80
2023/10/04 04:41:49;;;;;;;4.22;1.80;;;;;;;18.77;52.49;100466.81;7673365;32;40871;-66
2023/10/04 04:46:24;;;;;;;4.85;1.67;;;;;;;18.61;52.34;100484.81;7673275;32;38737;-65
2023/10/04 04:50:41;;;;;;;5.57;1.52;;;;;;;18.59;53.13;100493.41;7673897;32;37339;-65
2023/10/04 04:54:58;;;;;;;4.78;1.48;;;;;;;18.52;52.93;100495.78;7683584;32;39271;-79
2023/10/04 04:59:16;;;;;;;3.22;1.70;;;;;;;18.57;52.48;100490.16;7683570;32;39922;-80
2023/10/04 05:03:33;;;;;;;5.18;1.60;;;;;;;18.49;51.66;100501.91;7683563;32;37939;-80
2023/10/04 05:07:50;;;;;;;2.70;1.60;;;;;;;17.70;53.84;100506.41;7683307;32;37028;-79
2023/10/04 05:12:06;;;;;;;2.42;1.40;;;;;;;18.05;52.55;100517.12;7670699;32;39355;-79
2023/10/04 05:16:25;;;;;;;2.25;1.27;;;;;;;18.07;52.37;100531.44;7675683;32;39813;-78
2023/10/04 05:20:49;;;;;;;2.75;1.45;;;;;;;18.08;51.76;100533.91;7662602;32;37102;-79
2023/10/04 05:25:05;;;;;;;3.60;1.60;;;;;;;17.96;51.90;100553.69;7656896;32;36960;-78
2023/10/04 05:29:22;;;;;;;2.22;1.20;;;;;;;17.73;52.16;100560.13;7682410;32;39431;-79
2023/10/04 05:33:39;;;;;;;6.85;1.62;;;;;;;17.75;51.90;100563.41;7682049;32;39781;-79
2023/10/04 05:37:55;;;;;;;3.95;1.40;;;;;;;17.88;51.00;100567.34;7668063;32;38104;-80
2023/10/04 05:42:12;;;;;;;3.00;1.50;;;;;;;17.40;51.41;100573.88;7659815;32;37094;-80
2023/10/04 05:46:28;;;;;;;2.80;1.55;;;;;;;17.35;50.74;100585.81;7659917;32;39868;-81
2023/10/04 05:50:45;;;;;;;8.45;1.70;;;;;;;17.24;50.68;100607.16;7659727;32;39853;-78
2023/10/04 05:55:01;;;;;;;3.72;1.27;;;;;;;17.39;49.59;100617.16;7659517;32;37894;-78
2023/10/04 05:59:18;;;;;;;3.50;1.40;;;;;;;17.50;49.27;100605.97;7659705;32;37160;-79
2023/10/04 06:03:35;;;;;;;6.07;1.30;;;;;;;17.46;49.14;100611.28;7668687;32;39323;-78
2023/10/04 06:07:54;;;;;;;3.80;1.40;;;;;;;17.54;48.44;100618.88;7663234;32;40865;-79
2023/10/04 06:12:11;;;;;;;4.53;1.30;;;;;;;17.37;48.07;100624.09;7685772;32;38727;-79
2023/10/04 06:16:28;;;;;;;2.60;1.50;;;;;;;17.06;48.98;100641.84;7685824;32;37240;-79
2023/10/04 06:20:45;;;;;;;4.28;1.50;;;;;;;17.06;48.43;100652.84;7677613;32;40249;-77
2023/10/04 06:25:02;;;;;;;3.92;1.85;;;;;;;17.30;48.60;100660.28;7681844;32;40072;-81
2023/10/04 06:29:18;;;;;;;2.92;1.40;;;;;;;17.55;47.74;100659.09;7685616;32;38029;-79
2023/10/04 06:33:34;;;;;;;3.75;1.30;;;;;;;17.45;47.69;100653.72;7685659;32;37029;-80
2023/10/04 06:37:56;;;;;;;5.28;1.85;;;;;;;17.62;46.77;100645.75;7685464;32;39998;-66
2023/10/04 06:42:13;;;;;;;8.95;1.60;;;;;;;17.59;47.73;100659.31;7684651;32;39918;-66
2023/10/04 06:46:30;;;;;;;4.43;1.33;;;;;;;17.51;47.39;100685.63;7685580;32;38817;-78
2023/10/04 06:50:49;;;;;;;6.87;1.40;;;;;;;17.74;47.18;100700.47;7683503;32;36908;-78
2023/10/04 06:55:08;;;;;;;4.05;1.25;;;;;;;17.99;46.32;100685.50;7685339;32;40067;-78
2023/10/04 06:59:25;;;;;;;11.12;1.48;;;;;;;17.95;46.36;100694.69;7663025;32;40705;-79
2023/10/04 07:03:43;;;;;;;2.28;1.08;;;;;;;18.09;46.63;100686.47;7658924;32;38094;-79
2023/10/04 07:08:01;;;;;;;3.40;1.27;;;;;;;18.32;46.28;100699.31;7678168;32;37073;-78
2023/10/04 07:12:17;;;;;;;3.33;1.42;;;;;;;18.39;46.48;100708.03;7660223;32;39322;-81
2023/10/04 07:16:34;;;;;;;3.83;1.30;;;;;;;18.47;45.96;100706.53;7658699;32;40762;-81
2023/10/04 07:20:51;;;;;;;6.55;1.12;;;;;;;18.60;45.79;100715.97;7658895;32;38640;-83
2023/10/04 07:25:08;;;;;;;2.70;1.25;;;;;;;18.61;45.44;100701.03;7658700;32;37815;-81
2023/10/04 07:29:26;;;;;;;2.28;1.27;;;;;;;18.85;45.16;100700.06;7675307;32;39398;-80
2023/10/04 07:33:43;;;;;;;2.72;1.20;;;;;;;18.89;45.08;100703.88;7684911;32;39954;-80
2023/10/04 07:37:59;;;;;;;1.92;1.30;;;;;;;19.24;45.12;100707.06;7684624;32;37756;-80
2023/10/04 07:42:17;;;;;;;2.65;1.35;;;;;;;19.04;45.68;100705.50;7682134;32;37900;-80
2023/10/04 07:46:34;;;;;;;4.28;1.35;;;;;;;18.94;45.80;100703.78;7658407;32;40217;-80
2023/10/04 07:50:50;;;;;;;5.55;1.30;;;;;;;18.85;46.33;100708.37;7663787;32;39885;-80
2023/10/04 07:55:22;;;;;;;4.03;1.67;;;;;;;18.91;45.72;100698.88;7656505;32;37760;-80
2023/10/04 07:59:41;;;;;;;6.03;1.58;;;;;;;18.85;45.67;100691.78;7672487;32;38378;-81
2023/10/04 08:03:58;;;;;;;7.72;1.45;;;;;;;18.53;46.35;100687.94;7669300;32;39480;-81
2023/10/04 08:08:15;;;;;;;2.65;1.25;;;;;;;19.03;45.37;100690.87;7668693;32;41526;-80
2023/10/04 08:12:31;;;;;;;4.62;1.55;;;;;;;19.16;45.42;100705.00;7669671;32;38740;-80
2023/10/04 08:16:52;;;;;;;4.78;1.10;;;;;;;19.56;44.59;100703.34;7669836;32;37073;-80
2023/10/04 08:21:09;;;;;;;4.07;1.30;;;;;;;19.85;43.83;100697.47;7682814;32;39962;-80
2023/10/04 08:25:28;;;;;;;3.90;1.42;;;;;;;20.36;43.16;100692.62;7683834;32;40783;-65
2023/10/04 08:29:45;;;;;;;4.65;1.52;;;;;;;20.26;42.27;100690.94;7682943;32;38026;-65
2023/10/04 08:34:02;;;;;;;3.37;1.10;;;;;;;20.44;42.42;100693.81;7683942;32;37757;-81
2023/10/04 08:38:20;;;;;;;3.12;1.20;;;;;;;20.49;42.27;100696.47;7683948;32;39338;-81
2023/10/04 08:42:37;;;;;;;4.30;1.30;;;;;;;20.03;43.48;100719.75;7672021;32;40873;-81
2023/10/04 08:46:55;;;;;;;4.95;1.40;;;;;;;20.01;43.54;100720.06;7657455;32;37724;-81
2023/10/04 08:51:21;;;;;;;8.45;1.77;;;;;;;19.96;44.08;100716.59;7657377;32;37193;-81
2023/10/04 08:55:45;;;;;;;4.30;1.65;;;;;;;20.29;44.21;100710.81;7657396;32;39099;-81
2023/10/04 09:00:10;;;;;;;3.90;1.37;;;;;;;20.18;42.62;100711.06;7657305;32;40865;-82
2023/10/04 09:04:46;;;;;;;6.50;1.50;;;;;;;20.43;42.24;100720.69;7656501;32;38010;-82
2023/10/04 09:09:05;;;;;;;5.20;1.52;;;;;;;21.04;42.36;100714.69;7660036;32;37063;-81
2023/10/04 09:13:22;;;;;;;4.32;1.58;;;;;;;20.86;41.43;100713.78;7666552;32;40108;-79
2023/10/04 09:17:55;;;;;;;2.83;1.30;;;;;;;20.97;41.09;100715.16;7672863;32;40015;-80
2023/10/04 09:22:17;;;;;;;5.22;1.35;;;;;;;21.12;40.05;100724.16;7673754;32;38007;-79
2023/10/04 09:26:34;;;;;;;5.28;1.60;;;;;;;20.74;41.29;100736.53;7669701;32;37853;-77
2023/10/04 09:30:50;;;;;;;2.55;1.35;;;;;;;20.78;41.19;100733.94;7673111;32;38011;-79
2023/10/04 09:35:08;;;;;;;2.33;1.23;;;;;;;20.62;42.03;100739.88;7671852;32;40123;-79
2023/10/04 09:39:28;;;;;;;4.15;1.60;;;;;;;20.30;41.91;100734.59;7672300;32;36584;-80
2023/10/04 09:43:45;;;;;;;2.17;1.20;;;;;;;20.63;41.24;100736.00;7672175;32;36989;-80
2023/10/04 09:48:03;;;;;;;2.42;1.30;;;;;;;20.96;40.41;100749.53;7663707;32;39438;-81
2023/10/04 09:52:22;;;;;;;3.25;1.10;;;;;;;20.64;40.68;100753.44;7659862;32;40862;-81
2023/10/04 09:56:43;;;;;;;3.53;1.60;;;;;;;20.49;40.59;100762.94;7658495;32;37195;-80
2023/10/04 10:01:11;;;;;;;3.15;1.50;;;;;;;21.09;39.67;100763.63;7658679;32;36921;-80
2023/10/04 10:05:31;;;;;;;3.08;1.35;;;;;;;21.45;38.78;100765.38;7659873;32;39496;-81
2023/10/04 10:10:04;;;;;;;2.58;1.20;;;;;;;22.15;37.63;100765.56;7659988;32;39994;-81
2023/10/04 10:14:33;;;;;;;4.15;1.50;;;;;;;21.45;38.97;100779.25;7679805;32;38739;-82
2023/10/04 10:18:49;;;;;;;2.33;1.45;;;;;;;21.79;37.10;100780.53;7662752;32;36311;-82
2023/10/04 10:23:13;;;;;;;4.82;1.42;;;;;;;22.40;35.37;100778.63;7659505;32;40160;-82
2023/10/04 10:27:36;;;;;;;5.45;1.45;;;;;;;22.67;34.19;100771.91;7678732;32;40943;-82
2023/10/04 10:31:54;;;;;;;2.30;1.10;;;;;;;22.58;34.03;100778.63;7659298;32;36961;-81
2023/10/04 10:36:21;;;;;;;6.53;1.55;;;;;;;22.16;34.51;100783.84;7675443;32;38773;-82
2023/10/04 10:40:38;;;;;;;2.95;1.20;;;;;;;21.93;35.14;100803.41;7685719;32;38998;-82
2023/10/04 10:45:24;;;;;;;2.80;1.42;;;;;;;21.96;35.74;100788.88;7684070;32;40747;-82
2023/10/04 10:49:49;;;;;;;4.05;1.70;;;;;;;21.91;35.17;100786.25;7659592;32;38763;-82
2023/10/04 10:54:07;;;;;;;3.22;1.60;;;;;;;21.27;36.24;100790.28;7659106;32;37122;-82
2023/10/04 10:58:23;;;;;;;21.62;2.00;;;;;;;21.48;35.96;100775.87;7677154;32;39318;-81
2023/10/04 11:02:40;;;;;;;6.85;1.37;;;;;;;21.00;36.60;100767.16;7676678;32;40845;-80
2023/10/04 11:06:57;;;;;;;4.57;1.50;;;;;;;21.38;36.00;100771.41;7670775;32;38928;-81
2023/10/04 11:11:14;;;;;;;3.50;1.33;;;;;;;21.05;35.76;100779.25;7671835;32;37939;-79
2023/10/04 11:15:31;;;;;;;5.53;1.20;;;;;;;20.41;36.36;100778.34;7663796;32;39351;-79
2023/10/04 11:19:52;;;;;;;3.17;1.40;;;;;;;20.83;36.22;100767.06;7670470;32;39923;-80
2023/10/04 11:24:09;;;;;;;5.62;1.48;;;;;;;20.76;35.70;100766.72;7661237;32;36520;-79
2023/10/04 11:28:26;;;;;;;7.03;1.67;;;;;;;20.88;35.32;100774.44;7656892;32;37119;-80
2023/10/04 11:32:46;;;;;;;7.68;1.50;;;;;;;20.90;35.47;100761.88;7657107;32;39969;-79
2023/10/04 11:37:04;;;;;;;5.57;1.45;;;;;;;21.21;37.05;100774.91;7657245;32;39787;-79
2023/10/04 11:41:21;;;;;;;6.85;1.75;;;;;;;21.37;36.05;100764.25;7657337;32;37872;-79
2023/10/04 11:45:38;;;;;;;5.72;1.30;;;;;;;20.87;35.65;100761.72;7657451;32;37160;-80
2023/10/04 11:50:00;;;;;;;6.05;1.70;;;;;;;20.76;35.04;100755.63;7658563;32;40155;-80
2023/10/04 11:54:18;;;;;;;3.45;1.30;;;;;;;20.77;35.22;100755.31;7656580;32;40836;-80
2023/10/04 11:58:51;;;;;;;3.20;1.17;;;;;;;20.45;35.47;100768.28;7655690;32;38039;-80
2023/10/04 12:03:10;;;;;;;4.40;1.10;;;;;;;20.55;35.43;100778.28;7657144;32;37716;-80
2023/10/04 12:07:29;;;;;;;5.82;1.23;;;;;;;19.92;36.20;100790.28;7657964;32;39147;-80
2023/10/04 12:11:47;;;;;;;5.28;1.42;;;;;;;20.07;35.81;100773.31;7658251;32;39779;-80
2023/10/04 12:16:05;;;;;;;4.10;1.60;;;;;;;19.76;36.63;100779.53;7658141;32;37780;-80
2023/10/04 12:20:22;;;;;;;5.43;1.50;;;;;;;20.17;36.35;100780.59;7658126;32;37048;-80
2023/10/04 12:24:39;;;;;;;5.75;1.50;;;;;;;20.16;36.70;100787.25;7658071;32;40013;-81
2023/10/04 12:28:56;;;;;;;3.40;1.37;;;;;;;19.75;37.98;100789.00;7657969;32;39980;-80
2023/10/04 12:33:12;;;;;;;8.30;1.50;;;;;;;19.22;39.77;100787.53;7657809;32;38750;-80
2023/10/04 12:37:29;;;;;;;4.55;1.42;;;;;;;19.88;38.86;100790.88;7657626;32;37738;-80
2023/10/04 12:41:46;;;;;;;3.53;1.50;;;;;;;19.50;39.66;100784.75;7657757;32;39567;-80
2023/10/04 12:46:03;;;;;;;2.55;1.50;;;;;;;19.65;38.93;100784.44;7657695;32;39927;-80
2023/10/04 12:50:21;;;;;;;3.83;1.30;;;;;;;19.64;41.33;100763.44;7657505;32;37962;-80
2023/10/04 12:54:38;;;;;;;5.45;1.67;;;;;;;19.38;42.44;100774.22;7657549;32;36235;-80
2023/10/04 12:58:54;;;;;;;6.93;1.55;;;;;;;19.51;43.54;100762.34;7657415;32;40132;-80
2023/10/04 13:03:11;;;;;;;3.72;1.10;;;;;;;19.28;41.56;100771.66;7657403;32;40121;-80
2023/10/04 13:07:28;;;;;;;5.18;1.90;;;;;;;19.50;40.73;100771.75;7657195;32;37872;-80
2023/10/04 13:11:46;;;;;;;2.40;1.20;;;;;;;19.49;45.65;100750.78;7657097;32;37786;-80
2023/10/04 13:16:04;;;;;;;2.83;1.20;;;;;;;19.48;41.96;100748.31;7657033;32;38427;-80
2023/10/04 13:20:28;;;;;;;4.70;1.50;;;;;;;19.49;43.43;100764.59;7656940;32;39936;-80
2023/10/04 13:24:48;;;;;;;4.28;1.58;;;;;;;19.40;42.95;100771.94;7656665;32;38734;-79
2023/10/04 13:29:09;;;;;;;7.18;1.67;;;;;;;19.28;43.60;100780.78;7657218;32;35664;-79
2023/10/04 13:33:26;;;;;;;5.62;1.40;;;;;;;19.14;45.49;100780.78;7656728;32;39211;-79
2023/10/04 13:37:47;;;;;;;3.87;1.50;;;;;;;18.87;49.34;100766.91;7656345;32;40143;-80
2023/10/04 13:42:04;;;;;;;4.97;1.52;;;;;;;18.81;49.29;100759.78;7656383;32;37989;-80
2023/10/04 13:46:40;;;;;;;4.32;1.50;;;;;;;18.63;49.25;100781.66;7656032;32;37409;-80
2023/10/04 13:50:59;;;;;;;4.15;1.42;;;;;;;18.33;50.25;100800.34;7656914;32;40064;-80
2023/10/04 13:55:16;;;;;;;2.85;1.50;;;;;;;17.92;51.18;100802.84;7659774;32;39913;-80
2023/10/04 13:59:34;;;;;;;4.00;1.50;;;;;;;17.87;52.06;100803.75;7659752;32;38747;-80
2023/10/04 14:03:51;;;;;;;2.30;1.10;;;;;;;18.01;51.17;100798.31;7659876;32;36008;-80
2023/10/04 14:08:09;;;;;;;3.30;1.40;;;;;;;17.59;51.46;100803.53;7658682;32;39946;-80
2023/10/04 14:12:25;;;;;;;4.18;1.60;;;;;;;17.79;50.96;100799.66;7659575;32;40841;-80
2023/10/04 14:16:42;;;;;;;5.90;1.45;;;;;;;17.58;52.21;100790.84;7659542;32;38958;-80
2023/10/04 14:20:58;;;;;;;4.75;1.65;;;;;;;17.58;51.42;100788.09;7659604;32;37817;-80
2023/10/04 14:25:15;;;;;;;5.78;1.58;;;;;;;17.72;49.47;100784.62;7659565;32;39188;-80
2023/10/04 14:29:31;;;;;;;5.70;1.30;;;;;;;17.82;51.96;100777.03;7659402;32;39910;-80
2023/10/04 14:33:48;;;;;;;3.47;1.30;;;;;;;18.00;52.19;100769.09;7659357;32;38767;-80
2023/10/04 14:38:07;;;;;;;3.65;1.20;;;;;;;18.09;52.46;100761.78;7659163;32;37897;-80
2023/10/04 14:42:24;;;;;;;2.53;1.23;;;;;;;18.29;52.59;100759.84;7659080;32;39520;-80
2023/10/04 14:46:40;;;;;;;2.70;1.48;;;;;;;18.38;52.11;100749.75;7659232;32;40870;-80
2023/10/04 14:50:57;;;;;;;4.22;1.95;;;;;;;18.42;52.22;100752.72;7659125;32;37773;-80
2023/10/04 14:55:27;;;;;;;3.55;1.92;;;;;;;18.82;49.98;100753.16;7659205;32;37284;-80
2023/10/04 14:59:44;;;;;;;6.55;1.85;;;;;;;19.63;48.70;100752.72;7659125;32;39418;-80
2023/10/04 15:04:03;;;;;;;5.60;1.70;;;;;;;19.28;46.69;100749.53;7658077;32;40957;-80
2023/10/04 15:08:22;;;;;;;5.85;1.40;;;;;;;19.27;46.82;100756.19;7658876;32;38747;-80
2023/10/04 15:12:38;;;;;;;3.35;1.50;;;;;;;19.11;46.64;100747.41;7659004;32;36072;-80
2023/10/04 15:16:58;;;;;;;5.15;1.45;;;;;;;19.11;46.30;100750.16;7658893;32;39205;-80
2023/10/04 15:21:17;;;;;;;4.07;1.67;;;;;;;19.11;46.79;100748.22;7658755;32;40009;-80
2023/10/04 15:25:40;;;;;;;4.20;1.50;;;;;;;19.06;48.48;100748.31;7651096;32;251676;-80
2023/10/04 15:29:56;;;;;;;3.22;1.60;;;;;;;19.08;49.49;100746.06;7658802;32;37257;-80
2023/10/04 15:34:14;;;;;;;3.62;1.40;;;;;;;19.28;48.33;100738.47;7658643;32;39970;-80
2023/10/04 15:38:31;;;;;;;7.65;3.20;;;;;;;19.52;48.46;100743.78;7658474;32;40704;-80
2023/10/04 15:42:47;;;;;;;6.20;1.80;;;;;;;19.70;46.75;100739.28;7658564;32;38687;-80
2023/10/04 15:47:05;;;;;;;4.18;1.75;;;;;;;20.20;44.44;100744.78;7658542;32;37144;-80
2023/10/04 15:51:21;;;;;;;3.83;2.00;;;;;;;20.15;45.18;100742.16;7658522;32;39044;-80
2023/10/04 15:55:38;;;;;;;3.37;1.65;;;;;;;20.10;45.43;100742.25;7658384;32;40097;-80
2023/10/04 15:59:55;;;;;;;5.07;2.00;;;;;;;20.17;46.06;100750.13;7658375;32;37671;-79
2023/10/04 16:04:12;;;;;;;5.43;1.90;;;;;;;20.39;44.52;100752.91;7658394;32;37150;-79
2023/10/04 16:08:28;;;;;;;4.90;1.50;;;;;;;21.00;43.35;100744.97;7658357;32;40116;-80
2023/10/04 16:12:46;;;;;;;4.15;1.80;;;;;;;20.80;43.76;100738.06;7658231;32;39933;-80
2023/10/04 16:17:03;;;;;;;3.00;1.42;;;;;;;20.21;45.02;100749.22;7657587;32;39287;-80
2023/10/04 16:21:21;;;;;;;3.22;1.45;;;;;;;19.77;46.02;100750.75;7658172;32;36956;-80
2023/10/04 16:25:39;;;;;;;4.78;1.80;;;;;;;19.43;46.57;100749.22;7658184;32;39149;-80
2023/10/04 16:29:56;;;;;;;4.35;1.40;;;;;;;19.06;47.06;100759.37;7658095;32;38975;-80
2023/10/04 16:34:12;;;;;;;4.10;1.85;;;;;;;18.81;47.46;100766.13;7657630;32;38689;-80
2023/10/04 16:38:29;;;;;;;10.15;3.37;;;;;;;18.51;47.87;100778.53;7657754;32;37012;-80
2023/10/04 16:42:46;;;;;;;5.85;2.97;;;;;;;18.27;48.37;100784.97;7657816;32;39309;-79
2023/10/04 16:47:04;;;;;;;8.98;3.40;;;;;;;17.89;49.27;100796.00;7657860;32;39750;-79
2023/10/04 16:51:20;;;;;;;5.40;2.80;;;;;;;17.60;49.83;100788.59;7657576;32;38718;-80
2023/10/04 16:55:37;;;;;;;4.30;2.40;;;;;;;17.51;50.18;100786.81;7657512;32;37571;-79
2023/10/04 16:59:54;;;;;;;4.32;1.83;;;;;;;17.48;49.99;100788.22;7657607;32;39471;-80
2023/10/04 17:04:10;;;;;;;4.00;2.05;;;;;;;17.41;50.19;100788.56;7657288;32;40751;-79
2023/10/04 17:08:27;;;;;;;5.30;1.77;;;;;;;17.18;50.53;100786.63;7657222;32;37990;-79
2023/10/04 17:12:43;;;;;;;10.63;1.73;;;;;;;16.89;51.54;100795.72;7657192;32;36919;-80
2023/10/04 17:17:00;;;;;;;4.68;1.80;;;;;;;16.96;51.92;100798.97;7655991;32;39370;-79
2023/10/04 17:21:17;;;;;;;4.18;1.90;;;;;;;16.56;53.13;100787.16;7656917;32;40906;-79
2023/10/04 17:25:33;;;;;;;2.90;1.50;;;;;;;16.41;53.06;100796.34;7657086;32;37844;-80
2023/10/04 17:29:50;;;;;;;4.70;1.62;;;;;;;16.46;52.45;100790.81;7660258;32;37844;-80
2023/10/04 17:34:06;;;;;;;5.45;1.67;;;;;;;16.33;52.52;100794.19;7660197;32;39415;-80
2023/10/04 17:38:23;;;;;;;4.03;2.08;;;;;;;16.41;52.17;100793.59;7659836;32;39615;-80
2023/10/04 17:42:40;;;;;;;3.30;1.65;;;;;;;16.02;53.32;100794.41;7659997;32;37715;-80
2023/10/04 17:47:00;;;;;;;4.95;1.75;;;;;;;16.09;53.04;100786.69;7660005;32;38096;-80
2023/10/04 17:51:16;;;;;;;2.58;1.50;;;;;;;15.72;54.15;100789.87;7659954;32;39328;-80
2023/10/04 17:55:35;;;;;;;5.15;1.77;;;;;;;15.63;54.29;100789.63;7659898;32;40034;-79
2023/10/04 17:59:52;;;;;;;3.10;1.60;;;;;;;15.30;55.02;100807.59;7658604;32;38032;-79
2023/10/04 18:04:09;;;;;;;4.37;1.92;;;;;;;15.26;55.24;100793.56;7659826;32;37804;-79
2023/10/04 18:08:25;;;;;;;2.90;1.55;;;;;;;15.15;55.63;100802.97;7659906;32;39344;-80
2023/10/04 18:12:42;;;;;;;6.55;2.22;;;;;;;15.12;55.40;100811.75;7659699;32;40018;-80
2023/10/04 18:16:59;;;;;;;3.60;1.80;;;;;;;15.06;55.37;100812.87;7659179;32;38617;-80
2023/10/04 18:21:15;;;;;;;4.45;1.80;;;;;;;15.24;54.94;100820.50;7665864;32;37756;-76
2023/10/04 18:25:32;;;;;;;5.70;1.80;;;;;;;15.18;55.07;100822.44;7665500;32;39393;-79
2023/10/04 18:29:49;;;;;;;5.28;2.05;;;;;;;15.29;54.73;100820.50;7667900;32;40754;-78
2023/10/04 18:34:06;;;;;;;5.75;2.03;;;;;;;14.78;56.00;100828.78;7684464;32;38018;-79
2023/10/04 18:38:23;;;;;;;4.25;1.98;;;;;;;14.85;55.86;100837.59;7683926;32;37040;-79
2023/10/04 18:42:39;;;;;;;6.75;2.25;;;;;;;14.92;55.58;100837.28;7660496;32;39816;-79
2023/10/04 18:46:56;;;;;;;5.28;2.10;;;;;;;14.87;55.50;100840.87;7668696;32;40114;-79
2023/10/04 18:51:16;;;;;;;5.12;1.95;;;;;;;14.83;55.84;100839.78;7663398;32;38199;-81
2023/10/04 18:55:40;;;;;;;2.72;1.70;;;;;;;14.92;55.52;100832.66;7658442;32;37862;-78
2023/10/04 18:59:57;;;;;;;3.72;1.98;;;;;;;14.74;55.89;100838.69;7682176;32;39760;-78
2023/10/04 19:04:18;;;;;;;3.03;1.48;;;;;;;14.73;55.77;100834.28;7683989;32;40743;-78
2023/10/04 19:08:38;;;;;;;5.18;1.70;;;;;;;14.63;56.08;100844.16;7675932;32;37806;-78
2023/10/04 19:12:54;;;;;;;5.20;1.80;;;;;;;14.37;56.87;100858.94;7666006;32;37292;-78
2023/10/04 19:17:11;;;;;;;4.70;1.90;;;;;;;13.97;57.99;100860.44;7669154;32;39283;-78
2023/10/04 19:21:28;;;;;;;4.87;1.70;;;;;;;14.23;57.23;100853.94;7665900;32;40876;-79
2023/10/04 19:25:49;;;;;;;3.90;1.80;;;;;;;14.25;57.28;100865.47;7663527;32;37959;-79
2023/10/04 19:30:06;;;;;;;5.57;1.80;;;;;;;14.05;58.09;100865.41;7662512;32;36818;-78
2023/10/04 19:34:22;;;;;;;4.75;2.10;;;;;;;13.99;58.20;100869.22;7656928;32;39333;-79
2023/10/04 19:38:41;;;;;;;5.20;2.53;;;;;;;13.98;57.85;100868.38;7684160;32;40076;-80
2023/10/04 19:42:57;;;;;;;2.72;1.83;;;;;;;14.16;57.26;100861.63;7683824;32;37072;-78
2023/10/04 19:47:18;;;;;;;5.28;2.00;;;;;;;13.99;57.74;100870.06;7683416;32;37141;-78
2023/10/04 19:51:37;;;;;;;3.75;1.73;;;;;;;13.87;58.12;100872.19;7684100;32;39390;-78
2023/10/04 19:55:53;;;;;;;2.87;1.87;;;;;;;14.18;56.84;100867.66;7684714;32;40616;-78
2023/10/04 20:00:31;;;;;;;2.25;1.58;;;;;;;14.07;55.83;100871.44;7684549;32;38026;-78